Cyril, Oklahoma
Current Conditions -  °F | °C
As of 3:58 PM on Friday 24 Oct 2014 (Local Time) from KFSI Reporting Station
Clear Clear  
Wind Chill: 87°   Ceiling: Unl
Heat Index: 87°   Visibility: 10mi
Dew Point: 60°   Wind: 14mph
Humidity: 40%   Direction: 210°SSW
Pressure: 30.02"   Gusts: 17mph
Location:  34.9°N, 98.2°W
Report Text: KFSI 242058Z AUTO 21012G15KT 10SM CLR 31/16 A3002 RMK AO2 SLP158 T03080156 57023
Loading
Personal Weather Stations






























Interactive Weather Map
Tropical Storm Tracking
New forecast layout! Learn more

10-Day Weather Forecast

Advertisements
Track Severe Weather on mobile